Time;durP1;ratioP1;P1;durP2;ratioP2;P2;SDS_P1;SDS_P2;PMS_P1;PMS_P2;Temp;Humidity;BMP_temperature;BMP_pressure;BME280_temperature;BME280_humidity;BME280_pressure;Samples;Min_cycle;Max_cycle;Signal;HPM_P1;HPM_P2
2023/01/07 08:49:28;;;;;;;653.67;606.63;;;20.60;89.90;;;;;;5398860;23;20208;-77
2023/01/07 08:51:55;;;;;;;647.75;608.20;;;20.60;89.20;;;;;;4923964;29;20643;-77
2023/01/07 08:54:21;;;;;;;661.55;609.15;;;20.70;88.90;;;;;;4928642;29;20208;-79
2023/01/07 08:56:48;;;;;;;465.13;443.85;;;20.60;88.50;;;;;;4931893;29;20220;-79
2023/01/07 08:59:15;;;;;;;442.75;423.77;;;20.60;88.50;;;;;;4925332;29;20215;-77
2023/01/07 09:01:41;;;;;;;502.83;477.77;;;20.70;88.50;;;;;;4927728;29;20200;-78
2023/01/07 09:04:08;;;;;;;543.55;515.75;;;20.70;89.30;;;;;;4922097;29;20221;-80
2023/01/07 09:06:36;;;;;;;634.40;594.05;;;20.60;88.40;;;;;;4929960;29;20207;-78
2023/01/07 09:09:03;;;;;;;506.55;481.60;;;20.60;88.50;;;;;;4931596;29;20201;-79
2023/01/07 09:11:30;;;;;;;578.53;548.15;;;20.60;89.10;;;;;;4939866;29;20187;-81
2023/01/07 09:13:56;;;;;;;682.78;636.08;;;20.50;89.20;;;;;;4926359;29;20215;-82
2023/01/07 09:16:23;;;;;;;643.10;604.45;;;20.50;89.50;;;;;;4925000;29;20672;-81
2023/01/07 09:18:50;;;;;;;650.28;607.95;;;20.40;89.60;;;;;;4924993;29;20205;-81
2023/01/07 09:21:17;;;;;;;665.63;622.97;;;20.40;89.60;;;;;;4925757;29;20209;-80
2023/01/07 09:23:45;;;;;;;646.90;606.17;;;20.40;89.70;;;;;;4926145;29;20215;-81
2023/01/07 09:26:11;;;;;;;640.55;603.30;;;20.40;89.80;;;;;;4927627;29;20200;-80
2023/01/07 09:28:38;;;;;;;572.28;541.20;;;20.50;89.30;;;;;;4927027;29;20229;-80
2023/01/07 09:31:05;;;;;;;635.58;595.20;;;20.80;88.40;;;;;;4928701;29;20219;-81
2023/01/07 09:33:34;;;;;;;661.53;621.70;;;20.90;87.50;;;;;;4921181;29;20216;-81
2023/01/07 09:36:00;;;;;;;670.50;631.33;;;21.10;87.00;;;;;;4927805;29;20314;-81
2023/01/07 09:38:27;;;;;;;699.67;654.78;;;21.10;86.70;;;;;;4926846;29;20738;-82
2023/01/07 09:40:55;;;;;;;653.53;613.20;;;21.30;86.40;;;;;;4924671;29;20213;-79
2023/01/07 09:43:28;;;;;;;624.85;589.33;;;21.30;86.30;;;;;;4932924;29;20200;-84
2023/01/07 09:45:58;;;;;;;697.00;653.83;;;21.10;87.20;;;;;;4924342;29;20202;-80
2023/01/07 09:48:31;;;;;;;636.45;598.97;;;21.10;87.00;;;;;;4928419;29;20376;-89
2023/01/07 09:51:02;;;;;;;566.75;538.60;;;21.40;86.30;;;;;;4931903;29;20204;-85
2023/01/07 09:53:33;;;;;;;658.55;619.95;;;21.80;85.00;;;;;;4929370;29;20201;-88
2023/01/07 09:56:05;;;;;;;647.60;609.20;;;22.20;82.90;;;;;;4933496;29;20220;-88
2023/01/07 09:58:32;;;;;;;700.50;657.63;;;22.60;81.30;;;;;;4931310;29;20205;-87
2023/01/07 10:01:07;;;;;;;679.92;636.47;;;22.80;80.30;;;;;;4933271;29;20206;-88
2023/01/07 10:03:49;;;;;;;631.10;595.50;;;22.90;79.20;;;;;;4930937;29;21830;-87
2023/01/07 10:06:21;;;;;;;657.13;619.83;;;23.10;78.60;;;;;;4927317;29;20227;-86
2023/01/07 10:08:58;;;;;;;699.00;652.42;;;23.10;78.40;;;;;;4933375;29;20209;-83
2023/01/07 10:11:38;;;;;;;742.15;690.65;;;23.10;78.20;;;;;;4930090;29;20252;-85
2023/01/07 10:14:27;;;;;;;646.33;610.58;;;23.10;78.30;;;;;;4930735;29;20632;-85
2023/01/07 10:17:01;;;;;;;677.85;638.40;;;23.10;78.10;;;;;;4927161;29;20221;-85
2023/01/07 10:19:37;;;;;;;620.97;588.15;;;23.10;78.20;;;;;;4924609;29;20337;-85
2023/01/07 10:22:14;;;;;;;724.53;681.78;;;23.10;78.10;;;;;;4933272;29;20211;-85
2023/01/07 10:24:46;;;;;;;726.53;678.05;;;23.00;78.00;;;;;;4927992;29;20216;-86
2023/01/07 10:27:18;;;;;;;565.70;537.30;;;23.00;78.00;;;;;;4925529;29;20651;-86
2023/01/07 10:29:49;;;;;;;667.45;630.50;;;22.90;78.10;;;;;;4931247;29;20202;-85
2023/01/07 10:32:18;;;;;;;667.13;629.85;;;22.90;78.10;;;;;;4927605;29;20693;-86
2023/01/07 10:34:47;;;;;;;696.20;654.33;;;22.90;78.30;;;;;;4933267;29;20263;-84
2023/01/07 10:37:26;;;;;;;547.35;521.53;;;22.90;78.40;;;;;;4934326;29;20275;-84
2023/01/07 10:39:59;;;;;;;504.80;482.25;;;22.90;78.50;;;;;;4936590;29;20607;-82
2023/01/07 10:42:33;;;;;;;660.67;624.95;;;23.00;78.20;;;;;;4936899;29;20213;-84
2023/01/07 10:45:21;;;;;;;731.92;677.88;;;23.10;78.00;;;;;;4942138;29;20210;-85
2023/01/07 10:48:10;;;;;;;581.05;551.65;;;23.10;77.80;;;;;;4931999;29;20209;-87
2023/01/07 10:50:48;;;;;;;660.90;622.30;;;23.10;77.80;;;;;;4926824;29;20675;-82
2023/01/07 10:53:24;;;;;;;705.83;661.53;;;23.10;78.30;;;;;;4928538;29;20205;-85
2023/01/07 10:56:02;;;;;;;544.28;518.50;;;23.10;78.50;;;;;;4928902;29;20240;-84
2023/01/07 10:58:37;;;;;;;458.42;439.30;;;23.10;78.00;;;;;;4926541;29;20226;-85
2023/01/07 11:01:05;;;;;;;569.50;542.05;;;23.00;78.10;;;;;;4927197;29;20209;-85
2023/01/07 11:03:32;;;;;;;541.05;516.42;;;23.10;78.00;;;;;;4925725;29;20217;-82
2023/01/07 11:06:04;;;;;;;623.60;591.10;;;23.10;78.00;;;;;;4936379;29;20603;-91
2023/01/07 11:11:22;;;;;;;771.30;718.47;;;23.20;77.40;;;;;;4938333;29;20197;-86
2023/01/07 11:13:58;;;;;;;739.20;692.33;;;23.30;77.10;;;;;;4933926;29;20577;-82
2023/01/07 11:16:29;;;;;;;763.45;715.00;;;23.40;76.90;;;;;;4932363;29;20214;-83
2023/01/07 11:19:00;;;;;;;735.88;690.65;;;23.40;76.60;;;;;;4937591;29;20207;-84
2023/01/07 11:21:35;;;;;;;746.10;695.60;;;23.50;76.60;;;;;;4943431;29;20203;-83
2023/01/07 11:24:02;;;;;;;576.70;548.50;;;23.40;76.50;;;;;;4930137;29;20200;-85
2023/01/07 11:26:31;;;;;;;538.50;513.67;;;23.40;76.50;;;;;;4935841;29;20202;-85
2023/01/07 11:29:13;;;;;;;597.22;567.15;;;23.40;76.60;;;;;;4937140;29;20669;-84
2023/01/07 11:31:48;;;;;;;541.47;516.17;;;23.40;76.60;;;;;;4928964;29;20199;-84
2023/01/07 11:34:23;;;;;;;482.83;462.47;;;23.40;77.50;;;;;;4930760;29;20201;-84
2023/01/07 11:36:50;;;;;;;566.87;540.10;;;23.40;76.50;;;;;;4932589;29;20528;-85
2023/01/07 11:39:20;;;;;;;752.03;706.53;;;23.30;76.70;;;;;;4936407;29;20469;-86
2023/01/07 11:41:55;;;;;;;764.35;713.67;;;23.30;76.60;;;;;;4940631;29;20836;-87
2023/01/07 11:44:23;;;;;;;689.55;646.60;;;23.30;76.70;;;;;;4937575;29;20221;-85
2023/01/07 11:46:50;;;;;;;462.33;443.30;;;23.30;76.70;;;;;;4936695;29;20194;-84
2023/01/07 11:49:24;;;;;;;382.20;367.37;;;23.40;76.70;;;;;;4933586;29;20241;-86
2023/01/07 11:51:52;;;;;;;396.53;380.97;;;23.40;76.40;;;;;;4937166;29;20489;-85
2023/01/07 11:54:21;;;;;;;508.13;486.10;;;23.50;76.30;;;;;;4936299;29;20990;-87
2023/01/07 11:56:48;;;;;;;675.65;637.53;;;23.50;76.20;;;;;;4929229;29;21019;-86
2023/01/07 11:59:29;;;;;;;501.97;479.50;;;23.60;75.90;;;;;;4931044;29;20206;-87
2023/01/07 12:01:59;;;;;;;498.00;476.43;;;23.70;75.50;;;;;;4929454;29;20485;-86
2023/01/07 12:04:28;;;;;;;465.50;446.23;;;23.80;75.30;;;;;;4931857;29;20945;-87
2023/01/07 12:06:57;;;;;;;376.13;361.80;;;23.60;74.80;;;;;;4926781;29;20451;-85
2023/01/07 12:09:36;;;;;;;433.30;415.87;;;23.40;75.40;;;;;;4928294;29;20456;-82
2023/01/07 12:12:30;;;;;;;612.22;579.85;;;23.40;73.80;;;;;;4929342;29;20972;-84
2023/01/07 12:15:00;;;;;;;520.07;496.77;;;23.40;69.90;;;;;;4927764;29;20665;-81
2023/01/07 12:17:29;;;;;;;647.03;611.22;;;23.30;67.90;;;;;;4925764;29;20502;-81
2023/01/07 12:20:30;;;;;;;694.55;656.75;;;23.20;67.90;;;;;;4925117;29;20205;-82
2023/01/07 12:23:07;;;;;;;637.35;603.42;;;23.10;65.90;;;;;;4927390;29;20210;-82
2023/01/07 12:25:43;;;;;;;428.10;411.13;;;23.10;65.70;;;;;;4926532;29;20200;-84
2023/01/07 12:28:13;;;;;;;504.87;482.37;;;23.10;67.10;;;;;;4930713;29;20513;-84
2023/01/07 12:31:06;;;;;;;654.00;618.20;;;23.20;68.20;;;;;;4925330;29;20477;-82
2023/01/07 12:33:59;;;;;;;446.63;425.10;;;23.10;69.10;;;;;;4924933;29;20334;-86
2023/01/07 12:36:35;;;;;;;280.90;271.20;;;23.30;69.30;;;;;;4925460;29;20225;-83
2023/01/07 12:39:08;;;;;;;364.60;351.07;;;23.30;69.60;;;;;;4925359;29;20465;-83
2023/01/07 12:41:40;;;;;;;483.33;462.30;;;23.40;70.00;;;;;;4928652;29;20485;-81
2023/01/07 12:44:12;;;;;;;753.22;702.83;;;23.40;69.40;;;;;;4932211;29;20457;-82
2023/01/07 12:46:46;;;;;;;621.53;590.17;;;23.40;70.40;;;;;;4931380;29;20679;-82
2023/01/07 12:49:20;;;;;;;604.43;573.73;;;23.40;69.50;;;;;;4930032;29;20632;-82
2023/01/07 12:51:51;;;;;;;607.57;574.60;;;23.40;69.50;;;;;;4934294;29;20499;-83
2023/01/07 12:54:24;;;;;;;562.70;536.53;;;23.40;69.40;;;;;;4935681;29;20477;-86
2023/01/07 12:56:56;;;;;;;786.83;739.43;;;23.50;69.60;;;;;;4928081;29;20482;-84
2023/01/07 12:59:28;;;;;;;784.28;734.90;;;23.50;69.60;;;;;;4925270;29;20473;-85
2023/01/07 13:02:10;;;;;;;758.20;710.90;;;23.50;69.60;;;;;;4926373;29;20213;-85
2023/01/07 13:04:48;;;;;;;741.47;697.17;;;23.50;69.70;;;;;;4926688;29;20464;-84
2023/01/07 13:07:19;;;;;;;744.00;699.40;;;23.50;69.80;;;;;;4926966;29;20467;-84
2023/01/07 13:09:52;;;;;;;713.33;673.00;;;23.40;69.70;;;;;;4927981;29;20549;-84
2023/01/07 13:12:45;;;;;;;704.47;665.45;;;23.50;69.90;;;;;;4926806;29;20474;-83
2023/01/07 13:15:21;;;;;;;736.08;693.53;;;23.40;69.90;;;;;;4926898;29;20198;-85
2023/01/07 13:17:52;;;;;;;778.47;729.72;;;23.40;70.00;;;;;;4925082;29;20219;-83
2023/01/07 13:20:32;;;;;;;777.45;726.95;;;23.40;70.00;;;;;;4927252;29;20205;-85
2023/01/07 13:23:00;;;;;;;831.95;771.83;;;23.50;70.10;;;;;;4927108;29;20196;-84
2023/01/07 13:25:46;;;;;;;746.97;700.07;;;23.50;70.20;;;;;;4926246;29;20214;-85
2023/01/07 13:28:28;;;;;;;761.83;710.63;;;23.40;70.30;;;;;;4924919;29;20462;-86
2023/01/07 13:31:16;;;;;;;743.10;699.42;;;23.40;71.20;;;;;;4924469;29;20519;-84
2023/01/07 13:33:54;;;;;;;664.47;625.42;;;23.40;70.50;;;;;;4926167;29;20212;-87
2023/01/07 13:36:30;;;;;;;762.97;716.75;;;23.50;70.50;;;;;;4925642;29;20209;-85
2023/01/07 13:39:29;;;;;;;692.43;653.17;;;23.50;70.30;;;;;;4928837;29;20635;-87
2023/01/07 13:42:08;;;;;;;756.83;710.10;;;23.50;70.50;;;;;;4926814;29;20479;-85
2023/01/07 13:45:05;;;;;;;754.97;709.30;;;23.60;70.40;;;;;;4929674;29;20479;-85
2023/01/07 13:47:41;;;;;;;519.67;495.90;;;23.60;70.30;;;;;;4926615;29;20208;-85
2023/01/07 13:50:22;;;;;;;425.33;408.83;;;23.60;70.30;;;;;;4931040;29;20498;-86
2023/01/07 13:53:03;;;;;;;515.58;492.67;;;23.60;70.10;;;;;;4928266;29;20472;-85
2023/01/07 13:55:36;;;;;;;551.40;525.27;;;23.70;70.10;;;;;;4927484;29;20202;-84
2023/01/07 13:58:03;;;;;;;554.73;528.83;;;23.70;70.00;;;;;;4931824;29;20813;-84
2023/01/07 14:00:46;;;;;;;547.87;522.50;;;23.70;70.00;;;;;;4924970;29;21100;-83
2023/01/07 14:03:39;;;;;;;546.30;521.10;;;23.70;69.80;;;;;;4926333;29;20501;-82
2023/01/07 14:06:37;;;;;;;611.97;581.83;;;23.60;70.00;;;;;;4929861;29;20584;-82
2023/01/07 14:09:27;;;;;;;696.13;657.93;;;23.50;69.90;;;;;;4932127;29;20901;-83
2023/01/07 14:12:34;;;;;;;722.33;677.10;;;23.50;70.00;;;;;;4934143;29;20458;-82
2023/01/07 14:15:40;;;;;;;792.95;737.47;;;23.40;70.00;;;;;;4931856;29;20520;-82
2023/01/07 14:18:52;;;;;;;824.25;759.75;;;23.40;70.10;;;;;;4912212;29;20239;-82
2023/01/07 14:21:40;;;;;;;774.90;722.85;;;23.30;70.10;;;;;;4934747;29;20210;-82
2023/01/07 14:24:25;;;;;;;595.60;566.20;;;23.30;70.20;;;;;;4930096;29;20276;-83
2023/01/07 14:27:03;;;;;;;757.55;711.47;;;23.30;70.30;;;;;;4935004;29;20495;-81
2023/01/07 14:29:43;;;;;;;796.38;744.00;;;23.30;70.40;;;;;;4931228;29;20204;-79
2023/01/07 14:32:29;;;;;;;784.45;724.33;;;23.30;70.30;;;;;;4929989;29;20216;-80
2023/01/07 14:35:02;;;;;;;786.40;738.38;;;23.30;70.30;;;;;;4935434;29;20220;-80
2023/01/07 14:37:33;;;;;;;773.33;727.22;;;23.20;70.30;;;;;;4937683;29;20226;-79
2023/01/07 14:40:17;;;;;;;805.88;754.67;;;23.20;70.30;;;;;;4934113;29;20206;-79
2023/01/07 14:42:47;;;;;;;717.33;676.58;;;23.20;70.40;;;;;;4932133;29;20268;-79
2023/01/07 14:45:56;;;;;;;658.38;624.08;;;23.00;70.70;;;;;;4934989;29;20228;-79
2023/01/07 14:48:34;;;;;;;755.67;707.80;;;22.70;72.00;;;;;;4933859;29;20590;-86
2023/01/07 14:51:28;;;;;;;752.70;707.80;;;23.20;71.70;;;;;;4934682;29;20693;-85
2023/01/07 14:54:19;;;;;;;600.33;569.10;;;23.40;70.90;;;;;;4935524;29;20205;-84
2023/01/07 14:57:00;;;;;;;789.60;739.50;;;23.60;70.70;;;;;;4920886;29;20206;-83
2023/01/07 14:59:55;;;;;;;810.50;754.85;;;23.60;70.60;;;;;;4938946;29;20206;-83
2023/01/07 15:03:02;;;;;;;791.40;735.65;;;23.70;70.70;;;;;;4930672;29;20210;-81
2023/01/07 15:06:04;;;;;;;738.63;694.67;;;23.70;70.70;;;;;;4935812;29;20206;-81
2023/01/07 15:17:16;;;;;;;784.58;731.33;;;23.60;70.10;;;;;;4932418;29;20306;-84
2023/01/07 15:19:43;;;;;;;756.35;708.40;;;23.60;71.00;;;;;;4936120;29;20702;-84
2023/01/07 15:22:28;;;;;;;781.17;730.63;;;23.60;70.40;;;;;;4935292;29;20238;-84
2023/01/07 15:25:03;;;;;;;771.72;724.05;;;23.60;70.40;;;;;;4935506;29;20607;-84
2023/01/07 15:27:42;;;;;;;761.42;712.75;;;23.60;70.70;;;;;;4934927;29;20197;-84
2023/01/07 15:30:22;;;;;;;668.78;631.05;;;23.60;70.70;;;;;;4934227;29;20210;-84
2023/01/07 15:33:00;;;;;;;569.43;541.50;;;23.60;71.00;;;;;;4935625;29;20690;-84
2023/01/07 15:35:34;;;;;;;298.50;288.08;;;23.60;71.10;;;;;;4929802;29;20484;-84
2023/01/07 15:38:29;;;;;;;451.90;433.40;;;23.60;71.20;;;;;;4934886;29;20261;-83
2023/01/07 15:41:02;;;;;;;688.03;649.77;;;23.50;71.40;;;;;;4935022;29;21044;-85
2023/01/07 15:43:33;;;;;;;777.15;726.75;;;23.50;71.40;;;;;;4928856;29;20822;-83
2023/01/07 15:46:04;;;;;;;821.40;759.25;;;23.60;71.30;;;;;;4934167;29;20201;-84
2023/01/07 15:48:31;;;;;;;770.90;720.08;;;23.60;71.30;;;;;;4932899;29;20268;-84
2023/01/07 15:50:59;;;;;;;792.40;735.30;;;23.60;71.50;;;;;;4935289;29;20212;-85
2023/01/07 15:53:28;;;;;;;822.00;757.60;;;23.80;71.20;;;;;;4932284;29;20200;-86
2023/01/07 15:55:58;;;;;;;852.28;784.45;;;24.10;70.70;;;;;;4932131;29;20747;-84
2023/01/07 15:58:35;;;;;;;760.05;705.63;;;24.30;69.80;;;;;;4935742;29;20549;-85
2023/01/07 16:01:04;;;;;;;808.40;754.35;;;24.40;69.50;;;;;;4931175;29;20301;-85
2023/01/07 16:03:32;;;;;;;736.17;687.28;;;24.50;69.90;;;;;;4936229;29;20211;-85
2023/01/07 16:06:00;;;;;;;795.22;734.28;;;24.50;69.20;;;;;;4933402;29;20202;-88
2023/01/07 16:08:29;;;;;;;843.42;771.47;;;24.40;69.30;;;;;;4935262;29;20746;-85
2023/01/07 16:11:01;;;;;;;788.67;738.33;;;24.40;69.40;;;;;;4933593;29;20208;-83
2023/01/07 16:13:28;;;;;;;776.13;726.28;;;24.30;69.80;;;;;;4931874;29;20214;-86
2023/01/07 16:16:00;;;;;;;764.67;713.57;;;24.20;70.10;;;;;;4936679;29;20198;-86
2023/01/07 16:18:27;;;;;;;798.08;745.13;;;24.20;70.00;;;;;;4927420;29;20528;-87
2023/01/07 16:20:57;;;;;;;779.58;729.00;;;24.40;69.60;;;;;;4933936;29;20224;-86
2023/01/07 16:23:26;;;;;;;792.00;742.20;;;24.50;69.40;;;;;;4935009;29;20286;-88
2023/01/07 16:25:56;;;;;;;762.75;713.60;;;24.40;69.30;;;;;;4923861;29;20204;-88
2023/01/07 16:28:27;;;;;;;781.05;727.13;;;24.30;69.60;;;;;;4934716;29;20307;-84
2023/01/07 16:30:56;;;;;;;823.33;766.95;;;24.10;70.00;;;;;;4929161;29;20210;-85
2023/01/07 16:33:27;;;;;;;787.03;734.72;;;24.00;70.40;;;;;;4931146;29;20672;-83
2023/01/07 16:35:57;;;;;;;811.78;758.30;;;23.90;70.80;;;;;;4935456;29;20665;-85
2023/01/07 16:38:25;;;;;;;811.72;759.05;;;23.80;71.20;;;;;;4937509;29;20202;-88
2023/01/07 16:40:53;;;;;;;794.38;740.28;;;23.70;71.40;;;;;;4933663;29;20677;-80
2023/01/07 16:43:42;;;;;;;819.00;764.13;;;23.60;71.60;;;;;;4934399;29;20289;-86
2023/01/07 16:46:23;;;;;;;801.92;746.60;;;23.70;71.70;;;;;;4933412;29;20214;-86
2023/01/07 16:49:28;;;;;;;816.20;760.95;;;23.70;71.80;;;;;;4930801;29;20693;-85
2023/01/07 16:52:04;;;;;;;804.13;749.78;;;23.80;71.80;;;;;;4915551;29;20224;-88
2023/01/07 16:54:33;;;;;;;789.63;736.28;;;23.80;71.70;;;;;;4924173;29;20209;-88
2023/01/07 16:57:02;;;;;;;794.92;744.03;;;23.90;71.50;;;;;;4931768;29;20294;-87
2023/01/07 16:59:32;;;;;;;801.25;748.28;;;24.00;71.40;;;;;;4933147;29;20212;-85
2023/01/07 17:02:10;;;;;;;810.70;754.53;;;24.10;71.20;;;;;;4935500;29;20196;-84
2023/01/07 17:04:37;;;;;;;801.92;745.03;;;24.10;71.10;;;;;;4934136;29;20201;-87
2023/01/07 17:07:04;;;;;;;821.97;761.85;;;24.10;71.10;;;;;;4932762;29;20217;-83
2023/01/07 17:09:34;;;;;;;820.90;764.13;;;24.20;71.10;;;;;;4933768;29;20231;-83
2023/01/07 17:12:02;;;;;;;808.50;755.00;;;24.20;71.20;;;;;;4930634;29;20199;-86
2023/01/07 17:14:47;;;;;;;801.67;748.35;;;24.10;71.00;;;;;;4933442;29;20543;-85
2023/01/07 17:17:32;;;;;;;802.93;750.33;;;24.10;71.20;;;;;;4935159;29;20208;-83
2023/01/07 17:20:21;;;;;;;818.03;766.65;;;24.10;71.20;;;;;;4931728;29;20472;-84
2023/01/07 17:22:48;;;;;;;831.37;776.47;;;24.10;71.20;;;;;;4934301;29;20712;-83
2023/01/07 17:25:21;;;;;;;850.20;784.88;;;24.00;71.20;;;;;;4934345;29;20583;-85
2023/01/07 17:27:51;;;;;;;823.50;759.40;;;24.00;71.30;;;;;;4932447;29;20234;-83
2023/01/07 17:30:20;;;;;;;812.10;752.83;;;24.00;71.40;;;;;;4931139;29;20218;-84
2023/01/07 17:32:49;;;;;;;863.50;795.72;;;24.00;71.40;;;;;;4932858;29;20703;-85
2023/01/07 17:35:18;;;;;;;769.30;724.80;;;24.00;71.50;;;;;;4931620;29;20202;-83
2023/01/07 17:37:45;;;;;;;779.50;732.15;;;23.90;71.60;;;;;;4930996;29;20454;-83
2023/01/07 17:40:14;;;;;;;859.53;797.57;;;23.90;71.60;;;;;;4933531;29;20209;-89
2023/01/07 17:45:40;;;;;;;852.50;784.13;;;23.90;71.90;;;;;;4851697;29;20208;-86
2023/01/07 17:48:13;;;;;;;795.43;746.97;;;23.80;72.00;;;;;;4857963;29;20227;-86
2023/01/07 17:50:40;;;;;;;761.90;718.13;;;23.80;72.00;;;;;;4895815;29;20501;-84
2023/01/07 17:53:13;;;;;;;885.83;816.08;;;23.60;72.10;;;;;;4928161;29;20218;-81
2023/01/07 17:55:39;;;;;;;879.15;804.95;;;23.50;72.60;;;;;;4928669;29;20213;-84
2023/01/07 17:58:12;;;;;;;861.25;789.08;;;23.50;72.70;;;;;;4923565;29;20203;-84
2023/01/07 18:00:39;;;;;;;814.33;757.95;;;23.50;72.50;;;;;;4928334;29;20212;-84
2023/01/07 18:03:06;;;;;;;811.58;756.85;;;23.50;72.60;;;;;;4924808;29;20621;-84
2023/01/07 18:05:34;;;;;;;790.08;738.80;;;23.50;72.60;;;;;;4930304;29;20203;-84
2023/01/07 18:08:01;;;;;;;755.03;710.85;;;23.50;72.70;;;;;;4930216;29;20687;-86
2023/01/07 18:12:28;;;;;;;556.30;530.87;;;23.50;72.80;;;;;;4936996;29;20208;-86
2023/01/07 18:13:15;;;;;;;619.72;588.97;;;23.40;72.80;;;;;;4934496;29;20551;-85
2023/01/07 18:15:42;;;;;;;717.40;676.60;;;23.50;72.70;;;;;;4932934;29;20304;-84
2023/01/07 18:18:08;;;;;;;616.60;585.73;;;23.40;72.70;;;;;;4933389;29;20263;-81
2023/01/07 18:20:37;;;;;;;721.30;681.20;;;23.50;72.30;;;;;;4931865;29;20871;-82
2023/01/07 18:23:03;;;;;;;743.75;698.75;;;23.60;72.20;;;;;;4930132;29;20522;-81
2023/01/07 18:25:31;;;;;;;747.13;703.40;;;23.60;71.90;;;;;;4934592;29;20204;-83
2023/01/07 18:27:58;;;;;;;762.47;717.03;;;23.80;71.80;;;;;;4933229;29;20720;-83
2023/01/07 18:30:25;;;;;;;752.38;707.17;;;23.80;71.50;;;;;;4933016;29;20467;-82
2023/01/07 18:32:52;;;;;;;723.27;680.97;;;23.90;71.50;;;;;;4934756;29;20206;-82
2023/01/07 18:35:21;;;;;;;750.00;706.37;;;23.90;71.50;;;;;;4932192;29;20471;-82
2023/01/07 18:37:49;;;;;;;738.90;695.40;;;23.90;71.40;;;;;;4934162;29;20469;-82
2023/01/07 18:40:17;;;;;;;755.17;711.20;;;23.90;71.40;;;;;;4932763;29;20472;-83
2023/01/07 18:42:44;;;;;;;534.37;510.27;;;23.90;71.30;;;;;;4932976;29;20217;-82
2023/01/07 18:45:11;;;;;;;488.47;467.43;;;23.90;71.20;;;;;;4929790;29;20472;-82
2023/01/07 18:47:38;;;;;;;658.17;624.90;;;23.90;71.20;;;;;;4931800;29;20467;-80
2023/01/07 18:50:07;;;;;;;717.57;677.17;;;23.60;72.00;;;;;;4927999;29;20498;-76
2023/01/07 18:52:33;;;;;;;745.37;703.07;;;23.30;73.40;;;;;;4930412;29;20476;-76
2023/01/07 18:55:02;;;;;;;686.93;650.33;;;23.10;74.00;;;;;;4932300;29;20460;-76
2023/01/07 19:00:50;;;;;;;674.73;639.13;;;22.90;74.80;;;;;;4928303;29;20520;-75
2023/01/07 19:03:17;;;;;;;704.53;665.57;;;22.80;75.00;;;;;;4933535;29;20473;-78
2023/01/07 19:05:44;;;;;;;719.13;679.47;;;22.80;75.30;;;;;;4930848;29;20801;-78
2023/01/07 19:08:10;;;;;;;706.43;667.17;;;22.70;75.50;;;;;;4931347;29;20553;-77
2023/01/07 19:10:41;;;;;;;668.70;634.40;;;22.70;75.70;;;;;;4930445;29;21551;-76
2023/01/07 19:13:08;;;;;;;711.13;672.13;;;22.60;75.80;;;;;;4930293;29;20481;-78
2023/01/07 19:15:34;;;;;;;746.10;702.23;;;22.60;76.10;;;;;;4927454;29;20985;-77
2023/01/07 19:18:01;;;;;;;688.10;651.08;;;22.60;76.10;;;;;;4934288;29;20530;-77
2023/01/07 19:20:28;;;;;;;547.73;521.90;;;22.60;76.20;;;;;;4931606;29;20215;-77
2023/01/07 19:22:58;;;;;;;685.30;649.07;;;22.50;76.30;;;;;;4929969;29;20517;-78
2023/01/07 19:25:25;;;;;;;723.47;683.60;;;22.60;76.40;;;;;;4931120;29;20525;-78
2023/01/07 19:27:53;;;;;;;732.33;691.72;;;22.60;76.40;;;;;;4928396;29;20449;-77
2023/01/07 19:30:20;;;;;;;721.93;681.63;;;22.50;76.40;;;;;;4926364;29;20206;-78
2023/01/07 19:32:47;;;;;;;730.33;690.38;;;22.50;76.50;;;;;;4933128;29;20465;-78
2023/01/07 19:35:13;;;;;;;733.37;692.07;;;22.50;76.40;;;;;;4933796;29;20558;-77
2023/01/07 19:37:40;;;;;;;748.20;705.70;;;22.60;76.40;;;;;;4934978;29;20472;-78
2023/01/07 19:40:08;;;;;;;754.93;709.30;;;22.60;76.40;;;;;;4933931;29;20574;-78
2023/01/07 19:42:35;;;;;;;690.83;653.03;;;22.60;76.40;;;;;;4932440;29;20480;-80
2023/01/07 19:45:05;;;;;;;612.93;582.53;;;22.60;76.30;;;;;;4927730;29;20215;-78
2023/01/07 19:47:32;;;;;;;589.87;561.63;;;22.60;76.40;;;;;;4926295;29;21046;-79
2023/01/07 19:49:58;;;;;;;671.80;636.80;;;22.60;76.40;;;;;;4923514;29;20588;-78
2023/01/07 19:52:28;;;;;;;845.33;786.25;;;22.60;76.40;;;;;;4922396;29;20472;-87
2023/01/07 19:54:55;;;;;;;852.17;779.67;;;22.80;75.90;;;;;;4926100;29;20215;-82
2023/01/07 19:57:21;;;;;;;539.10;514.13;;;22.90;75.30;;;;;;4924609;29;20206;-86
2023/01/07 19:59:48;;;;;;;515.70;493.30;;;23.20;74.70;;;;;;4927224;29;20462;-85
2023/01/07 20:02:16;;;;;;;647.47;614.60;;;23.30;74.00;;;;;;4931911;29;20841;-85
2023/01/07 20:04:43;;;;;;;622.63;591.27;;;23.40;73.80;;;;;;4933618;29;20456;-84
2023/01/07 20:07:09;;;;;;;668.23;632.13;;;23.40;73.40;;;;;;4933827;29;20466;-83
2023/01/07 20:09:36;;;;;;;672.33;635.33;;;23.40;73.30;;;;;;4933981;29;20986;-83
2023/01/07 20:12:03;;;;;;;732.63;691.30;;;23.40;73.10;;;;;;4931418;29;20491;-84
2023/01/07 20:14:30;;;;;;;724.43;684.53;;;23.50;73.10;;;;;;4932261;29;20834;-82
2023/01/07 20:16:57;;;;;;;741.97;700.38;;;23.50;72.90;;;;;;4929184;29;20511;-85
2023/01/07 20:19:26;;;;;;;666.30;630.63;;;23.50;72.80;;;;;;4934549;29;20195;-84
2023/01/07 20:21:52;;;;;;;696.55;658.22;;;23.40;72.80;;;;;;4931675;29;20462;-83
2023/01/07 20:24:19;;;;;;;737.28;696.00;;;23.50;72.80;;;;;;4932580;29;20209;-84
2023/01/07 20:26:46;;;;;;;724.40;684.03;;;23.50;72.80;;;;;;4926719;29;20199;-81
2023/01/07 20:29:13;;;;;;;731.20;688.92;;;23.40;72.90;;;;;;4931916;29;20489;-80
2023/01/07 20:31:40;;;;;;;742.53;698.95;;;23.00;74.10;;;;;;4929303;29;20333;-81
2023/01/07 20:34:06;;;;;;;739.45;696.08;;;22.80;74.90;;;;;;4933151;29;20222;-82
2023/01/07 20:36:34;;;;;;;397.50;382.30;;;22.70;75.40;;;;;;4929356;29;20214;-80
2023/01/07 20:39:04;;;;;;;617.13;586.90;;;22.60;75.70;;;;;;4931959;29;20462;-79
2023/01/07 20:41:32;;;;;;;834.38;773.25;;;22.60;76.80;;;;;;4930061;29;20469;-80
2023/01/07 20:44:01;;;;;;;847.88;781.40;;;22.60;76.20;;;;;;4930646;29;20206;-81
2023/01/07 20:46:30;;;;;;;801.20;752.15;;;22.60;76.40;;;;;;4929088;29;20296;-82
2023/01/07 20:48:57;;;;;;;583.30;555.10;;;22.50;76.40;;;;;;4932627;29;20684;-80
2023/01/07 20:51:24;;;;;;;592.70;564.22;;;22.50;76.50;;;;;;4931399;29;20981;-79
2023/01/07 20:53:52;;;;;;;697.23;659.97;;;22.50;76.50;;;;;;4928321;29;20675;-80
2023/01/07 20:56:21;;;;;;;648.97;615.78;;;22.50;76.60;;;;;;4925504;29;20472;-80
2023/01/07 20:58:49;;;;;;;631.77;599.63;;;22.50;76.60;;;;;;4927394;29;20201;-79
2023/01/07 21:01:17;;;;;;;610.50;580.23;;;22.50;76.70;;;;;;4921689;29;20475;-79
2023/01/07 21:03:45;;;;;;;583.00;554.83;;;22.50;76.60;;;;;;4929735;29;20466;-80
2023/01/07 21:06:14;;;;;;;756.85;709.55;;;22.50;76.60;;;;;;4925980;29;20492;-79
2023/01/07 21:08:40;;;;;;;669.30;633.73;;;22.50;76.70;;;;;;4925765;29;20203;-78
2023/01/07 21:11:11;;;;;;;711.85;671.45;;;22.50;76.70;;;;;;4932126;29;20474;-78
2023/01/07 21:13:38;;;;;;;688.63;649.83;;;22.50;76.70;;;;;;4923039;29;20702;-78
2023/01/07 21:16:05;;;;;;;538.93;514.33;;;22.50;76.70;;;;;;4921737;29;20474;-77
2023/01/07 21:18:32;;;;;;;608.40;578.60;;;22.50;76.70;;;;;;4924827;29;20449;-78
2023/01/07 21:20:59;;;;;;;740.95;698.75;;;22.50;76.80;;;;;;4930842;29;20207;-78
2023/01/07 21:23:26;;;;;;;844.13;776.53;;;22.50;77.00;;;;;;4928843;29;20232;-78
2023/01/07 21:25:53;;;;;;;773.70;722.50;;;22.50;77.00;;;;;;4932632;29;20262;-78
2023/01/07 21:28:21;;;;;;;792.80;741.92;;;22.50;77.10;;;;;;4930793;29;20623;-78
2023/01/07 21:30:48;;;;;;;780.53;729.15;;;22.50;77.10;;;;;;4927429;29;20228;-78
2023/01/07 21:33:15;;;;;;;695.38;656.75;;;22.50;77.10;;;;;;4931293;29;20216;-78
2023/01/07 21:35:42;;;;;;;831.15;763.78;;;22.50;77.20;;;;;;4930825;29;20200;-78
2023/01/07 21:38:09;;;;;;;721.23;676.03;;;22.50;77.20;;;;;;4920685;29;20215;-78
2023/01/07 21:40:37;;;;;;;867.58;800.47;;;22.50;78.00;;;;;;4926101;29;20477;-79
2023/01/07 21:43:04;;;;;;;840.25;775.67;;;22.50;77.20;;;;;;4930329;29;20214;-77